CheckWX is a tool to help pilots better visualize weather data.  It is not intended as a substitute for an official pre-flight weather briefing.

17:00:35 UTC

KIXD TAF
New Century Aircenter Airport
Olathe, Kansas, USA
KIXD 281728Z 2818/2918 25006KT 4SM -RA BR SCT005 BKN022 OVC050 TEMPO 2818/2821 1SM RA BR BKN008 FM282300 02005KT P6SM VCSH OVC020 FM290100 02005KT P6SM BKN200 FM291200 VRB04KT P6SM FEW250

May-28@
18:00 UTC

May-28 @ 18:00 UTC

May-28@
23:00 UTC

May-28 @ 23:00 UTC

TAF KIXD 281728Z 2818/2918 25006KT 4SM -RA BR SCT005 BKN022 OVC050

Expired

Wind
  • 250° at 6 KTS
Conditions
Light Rain, Mist
Cloud Levels
  • Scattered at 500' AGL
  • Broken at 2,200' AGL
  • Overcast at 5,000' AGL

May-28@
18:00 UTC

May-28 @ 18:00 UTC

May-28@
21:00 UTC

May-28 @ 21:00 UTC

TEMPO 2818/2821 1SM RA BR BKN008

Expired

Conditions
Rain, Mist
Cloud Levels
  • Broken at 800' AGL

May-28@
23:00 UTC

May-28 @ 23:00 UTC

May-29@
01:00 UTC

May-29 @ 01:00 UTC

FM282300 02005KT P6SM VCSH OVC020

Expired

Wind
  • 020° at 5 KTS
Conditions
Area Showers
Cloud Levels
  • Overcast at 2,000' AGL

May-29@
01:00 UTC

May-29 @ 01:00 UTC

May-29@
12:00 UTC

May-29 @ 12:00 UTC

FM290100 02005KT P6SM BKN200

Expired

Wind
  • 020° at 5 KTS
Cloud Levels
  • Broken at 20,000' AGL

May-29@
12:00 UTC

May-29 @ 12:00 UTC

May-29@
18:00 UTC

May-29 @ 18:00 UTC

FM291200 VRB04KT P6SM FEW250

From

From Standard forecast or significant change

Wind
  • Variable at 4 KTS
Cloud Levels
  • Few at 25,000' AGL